sensor_id;sensor_type;location;lat;lon;timestamp;P1;durP1;ratioP1;P2;durP2;ratioP2
7199;SDS011;3641;49.082;8.200;2022-12-18T00:01:22;69.45;;;27.85;;
7199;SDS011;3641;49.082;8.200;2022-12-18T00:03:51;71.60;;;27.35;;
7199;SDS011;3641;49.082;8.200;2022-12-18T00:06:18;71.35;;;28.42;;
7199;SDS011;3641;49.082;8.200;2022-12-18T00:08:45;75.95;;;30.42;;
7199;SDS011;3641;49.082;8.200;2022-12-18T00:11:12;78.75;;;29.35;;
7199;SDS011;3641;49.082;8.200;2022-12-18T00:13:40;71.25;;;28.65;;
7199;SDS011;3641;49.082;8.200;2022-12-18T00:16:09;73.65;;;27.67;;
7199;SDS011;3641;49.082;8.200;2022-12-18T00:18:39;77.45;;;28.25;;
7199;SDS011;3641;49.082;8.200;2022-12-18T00:21:06;74.13;;;27.65;;
7199;SDS011;3641;49.082;8.200;2022-12-18T00:23:34;71.95;;;29.33;;
7199;SDS011;3641;49.082;8.200;2022-12-18T00:26:02;70.18;;;27.63;;
7199;SDS011;3641;49.082;8.200;2022-12-18T00:28:31;67.95;;;27.52;;
7199;SDS011;3641;49.082;8.200;2022-12-18T00:31:01;73.70;;;28.35;;
7199;SDS011;3641;49.082;8.200;2022-12-18T00:33:29;74.80;;;27.52;;
7199;SDS011;3641;49.082;8.200;2022-12-18T00:35:59;76.40;;;28.08;;
7199;SDS011;3641;49.082;8.200;2022-12-18T00:38:26;71.90;;;28.33;;
7199;SDS011;3641;49.082;8.200;2022-12-18T00:40:53;67.70;;;26.95;;
7199;SDS011;3641;49.082;8.200;2022-12-18T00:43:19;66.40;;;27.50;;
7199;SDS011;3641;49.082;8.200;2022-12-18T00:45:45;71.68;;;27.40;;
7199;SDS011;3641;49.082;8.200;2022-12-18T00:48:11;70.82;;;27.20;;
7199;SDS011;3641;49.082;8.200;2022-12-18T00:50:39;74.50;;;28.73;;
7199;SDS011;3641;49.082;8.200;2022-12-18T00:53:06;74.18;;;28.92;;
7199;SDS011;3641;49.082;8.200;2022-12-18T00:55:32;76.72;;;28.27;;
7199;SDS011;3641;49.082;8.200;2022-12-18T00:57:59;75.85;;;29.17;;
7199;SDS011;3641;49.082;8.200;2022-12-18T01:00:26;71.38;;;28.10;;
7199;SDS011;3641;49.082;8.200;2022-12-18T01:02:52;70.13;;;28.58;;
7199;SDS011;3641;49.082;8.200;2022-12-18T01:05:19;75.65;;;28.00;;
7199;SDS011;3641;49.082;8.200;2022-12-18T01:07:46;79.50;;;29.67;;
7199;SDS011;3641;49.082;8.200;2022-12-18T01:10:13;74.38;;;28.10;;
7199;SDS011;3641;49.082;8.200;2022-12-18T01:12:39;71.05;;;27.25;;
7199;SDS011;3641;49.082;8.200;2022-12-18T01:15:06;70.85;;;28.52;;
7199;SDS011;3641;49.082;8.200;2022-12-18T01:17:34;77.10;;;29.73;;
7199;SDS011;3641;49.082;8.200;2022-12-18T01:20:00;77.05;;;28.77;;
7199;SDS011;3641;49.082;8.200;2022-12-18T01:22:27;78.53;;;27.60;;
7199;SDS011;3641;49.082;8.200;2022-12-18T01:24:54;75.43;;;29.50;;
7199;SDS011;3641;49.082;8.200;2022-12-18T01:27:21;82.50;;;29.45;;
7199;SDS011;3641;49.082;8.200;2022-12-18T01:29:48;86.07;;;29.27;;
7199;SDS011;3641;49.082;8.200;2022-12-18T01:32:15;82.68;;;29.55;;
7199;SDS011;3641;49.082;8.200;2022-12-18T01:34:41;80.53;;;29.73;;
7199;SDS011;3641;49.082;8.200;2022-12-18T01:37:08;76.90;;;29.40;;
7199;SDS011;3641;49.082;8.200;2022-12-18T01:39:34;74.82;;;28.55;;
7199;SDS011;3641;49.082;8.200;2022-12-18T01:42:03;72.85;;;29.00;;
7199;SDS011;3641;49.082;8.200;2022-12-18T01:44:55;74.07;;;29.05;;
7199;SDS011;3641;49.082;8.200;2022-12-18T01:47:28;74.25;;;27.80;;
7199;SDS011;3641;49.082;8.200;2022-12-18T01:49:58;72.90;;;27.88;;
7199;SDS011;3641;49.082;8.200;2022-12-18T01:52:28;77.05;;;29.30;;
7199;SDS011;3641;49.082;8.200;2022-12-18T01:54:58;76.43;;;29.77;;
7199;SDS011;3641;49.082;8.200;2022-12-18T01:57:27;74.70;;;27.70;;
7199;SDS011;3641;49.082;8.200;2022-12-18T01:59:55;74.40;;;27.55;;
7199;SDS011;3641;49.082;8.200;2022-12-18T02:02:25;83.70;;;30.48;;
7199;SDS011;3641;49.082;8.200;2022-12-18T02:04:52;79.03;;;28.95;;
7199;SDS011;3641;49.082;8.200;2022-12-18T02:07:20;72.85;;;28.63;;
7199;SDS011;3641;49.082;8.200;2022-12-18T02:09:54;79.05;;;29.08;;
7199;SDS011;3641;49.082;8.200;2022-12-18T02:12:25;76.43;;;28.90;;
7199;SDS011;3641;49.082;8.200;2022-12-18T02:15:02;75.95;;;28.40;;
7199;SDS011;3641;49.082;8.200;2022-12-18T02:17:35;73.18;;;28.20;;
7199;SDS011;3641;49.082;8.200;2022-12-18T02:20:07;78.07;;;29.90;;
7199;SDS011;3641;49.082;8.200;2022-12-18T02:22:42;78.93;;;28.65;;
7199;SDS011;3641;49.082;8.200;2022-12-18T02:25:26;72.43;;;28.45;;
7199;SDS011;3641;49.082;8.200;2022-12-18T02:28:15;76.07;;;28.33;;
7199;SDS011;3641;49.082;8.200;2022-12-18T02:30:46;74.03;;;28.15;;
7199;SDS011;3641;49.082;8.200;2022-12-18T02:33:15;78.15;;;30.40;;
7199;SDS011;3641;49.082;8.200;2022-12-18T02:35:42;79.28;;;29.23;;
7199;SDS011;3641;49.082;8.200;2022-12-18T02:38:11;76.60;;;28.90;;
7199;SDS011;3641;49.082;8.200;2022-12-18T02:40:38;77.15;;;29.55;;
7199;SDS011;3641;49.082;8.200;2022-12-18T02:43:09;75.60;;;29.08;;
7199;SDS011;3641;49.082;8.200;2022-12-18T02:45:45;78.03;;;29.60;;
7199;SDS011;3641;49.082;8.200;2022-12-18T02:48:13;82.75;;;29.95;;
7199;SDS011;3641;49.082;8.200;2022-12-18T02:50:41;75.40;;;29.35;;
7199;SDS011;3641;49.082;8.200;2022-12-18T02:53:13;79.50;;;30.13;;
7199;SDS011;3641;49.082;8.200;2022-12-18T02:55:47;81.78;;;29.63;;
7199;SDS011;3641;49.082;8.200;2022-12-18T02:58:25;75.05;;;28.48;;
7199;SDS011;3641;49.082;8.200;2022-12-18T03:00:58;86.28;;;30.77;;
7199;SDS011;3641;49.082;8.200;2022-12-18T03:03:29;72.20;;;26.80;;
7199;SDS011;3641;49.082;8.200;2022-12-18T03:06:00;75.10;;;28.77;;
7199;SDS011;3641;49.082;8.200;2022-12-18T03:08:31;76.03;;;28.38;;
7199;SDS011;3641;49.082;8.200;2022-12-18T03:11:03;73.68;;;27.88;;
7199;SDS011;3641;49.082;8.200;2022-12-18T03:13:33;76.78;;;28.92;;
7199;SDS011;3641;49.082;8.200;2022-12-18T03:16:03;79.05;;;28.55;;
7199;SDS011;3641;49.082;8.200;2022-12-18T03:18:34;77.50;;;29.20;;
7199;SDS011;3641;49.082;8.200;2022-12-18T03:21:04;79.75;;;29.38;;
7199;SDS011;3641;49.082;8.200;2022-12-18T03:23:33;79.97;;;30.63;;
7199;SDS011;3641;49.082;8.200;2022-12-18T03:26:04;73.85;;;28.33;;
7199;SDS011;3641;49.082;8.200;2022-12-18T03:28:34;70.53;;;29.33;;
7199;SDS011;3641;49.082;8.200;2022-12-18T03:31:06;76.85;;;28.13;;
7199;SDS011;3641;49.082;8.200;2022-12-18T03:33:37;76.50;;;29.95;;
7199;SDS011;3641;49.082;8.200;2022-12-18T03:36:07;75.85;;;29.95;;
7199;SDS011;3641;49.082;8.200;2022-12-18T03:38:34;72.18;;;29.02;;
7199;SDS011;3641;49.082;8.200;2022-12-18T03:41:03;73.47;;;28.08;;
7199;SDS011;3641;49.082;8.200;2022-12-18T03:43:41;70.65;;;28.02;;
7199;SDS011;3641;49.082;8.200;2022-12-18T03:46:17;74.03;;;29.23;;
7199;SDS011;3641;49.082;8.200;2022-12-18T03:48:57;73.97;;;30.08;;
7199;SDS011;3641;49.082;8.200;2022-12-18T03:51:28;69.53;;;28.48;;
7199;SDS011;3641;49.082;8.200;2022-12-18T03:54:03;75.82;;;27.75;;
7199;SDS011;3641;49.082;8.200;2022-12-18T03:56:35;80.82;;;30.08;;
7199;SDS011;3641;49.082;8.200;2022-12-18T03:59:05;78.50;;;29.25;;
7199;SDS011;3641;49.082;8.200;2022-12-18T04:01:35;75.22;;;29.05;;
7199;SDS011;3641;49.082;8.200;2022-12-18T04:04:05;73.05;;;29.42;;
7199;SDS011;3641;49.082;8.200;2022-12-18T04:06:34;75.88;;;28.60;;
7199;SDS011;3641;49.082;8.200;2022-12-18T04:09:02;69.18;;;28.10;;
7199;SDS011;3641;49.082;8.200;2022-12-18T04:11:29;75.13;;;30.63;;
7199;SDS011;3641;49.082;8.200;2022-12-18T04:13:55;70.82;;;28.55;;
7199;SDS011;3641;49.082;8.200;2022-12-18T04:16:23;78.22;;;29.85;;
7199;SDS011;3641;49.082;8.200;2022-12-18T04:18:51;78.40;;;29.10;;
7199;SDS011;3641;49.082;8.200;2022-12-18T04:21:18;70.60;;;27.80;;
7199;SDS011;3641;49.082;8.200;2022-12-18T04:23:44;65.25;;;27.75;;
7199;SDS011;3641;49.082;8.200;2022-12-18T04:26:11;75.38;;;27.85;;
7199;SDS011;3641;49.082;8.200;2022-12-18T04:28:38;74.85;;;29.52;;
7199;SDS011;3641;49.082;8.200;2022-12-18T04:31:04;82.30;;;28.73;;
7199;SDS011;3641;49.082;8.200;2022-12-18T04:33:30;76.35;;;28.00;;
7199;SDS011;3641;49.082;8.200;2022-12-18T04:35:58;73.95;;;27.88;;
7199;SDS011;3641;49.082;8.200;2022-12-18T04:38:25;68.88;;;27.13;;
7199;SDS011;3641;49.082;8.200;2022-12-18T04:40:51;70.88;;;28.38;;
7199;SDS011;3641;49.082;8.200;2022-12-18T04:43:18;73.45;;;27.65;;
7199;SDS011;3641;49.082;8.200;2022-12-18T04:45:44;76.18;;;28.75;;
7199;SDS011;3641;49.082;8.200;2022-12-18T04:48:11;70.28;;;28.10;;
7199;SDS011;3641;49.082;8.200;2022-12-18T04:50:37;77.93;;;28.70;;
7199;SDS011;3641;49.082;8.200;2022-12-18T04:53:05;71.90;;;26.95;;
7199;SDS011;3641;49.082;8.200;2022-12-18T04:55:31;65.68;;;26.05;;
7199;SDS011;3641;49.082;8.200;2022-12-18T04:57:58;78.30;;;27.85;;
7199;SDS011;3641;49.082;8.200;2022-12-18T05:00:24;70.45;;;27.95;;
7199;SDS011;3641;49.082;8.200;2022-12-18T05:02:51;79.65;;;28.17;;
7199;SDS011;3641;49.082;8.200;2022-12-18T05:05:17;66.95;;;27.00;;
7199;SDS011;3641;49.082;8.200;2022-12-18T05:07:44;70.80;;;27.73;;
7199;SDS011;3641;49.082;8.200;2022-12-18T05:10:12;67.10;;;27.70;;
7199;SDS011;3641;49.082;8.200;2022-12-18T05:12:38;70.60;;;27.38;;
7199;SDS011;3641;49.082;8.200;2022-12-18T05:15:23;70.40;;;26.55;;
7199;SDS011;3641;49.082;8.200;2022-12-18T05:17:49;74.22;;;27.48;;
7199;SDS011;3641;49.082;8.200;2022-12-18T05:20:16;68.60;;;25.88;;
7199;SDS011;3641;49.082;8.200;2022-12-18T05:22:43;75.43;;;28.50;;
7199;SDS011;3641;49.082;8.200;2022-12-18T05:25:09;70.75;;;27.20;;
7199;SDS011;3641;49.082;8.200;2022-12-18T05:27:37;66.97;;;26.20;;
7199;SDS011;3641;49.082;8.200;2022-12-18T05:30:04;68.47;;;28.13;;
7199;SDS011;3641;49.082;8.200;2022-12-18T05:32:31;70.15;;;27.42;;
7199;SDS011;3641;49.082;8.200;2022-12-18T05:34:58;78.10;;;28.35;;
7199;SDS011;3641;49.082;8.200;2022-12-18T05:37:24;72.57;;;29.40;;
7199;SDS011;3641;49.082;8.200;2022-12-18T05:39:51;74.88;;;30.23;;
7199;SDS011;3641;49.082;8.200;2022-12-18T05:42:17;69.15;;;27.33;;
7199;SDS011;3641;49.082;8.200;2022-12-18T05:44:45;68.88;;;28.88;;
7199;SDS011;3641;49.082;8.200;2022-12-18T05:47:12;81.10;;;29.52;;
7199;SDS011;3641;49.082;8.200;2022-12-18T05:49:39;74.22;;;29.70;;
7199;SDS011;3641;49.082;8.200;2022-12-18T05:52:05;74.18;;;28.08;;
7199;SDS011;3641;49.082;8.200;2022-12-18T05:54:32;70.35;;;28.33;;
7199;SDS011;3641;49.082;8.200;2022-12-18T05:56:58;71.72;;;27.55;;
7199;SDS011;3641;49.082;8.200;2022-12-18T05:59:25;73.32;;;27.13;;
7199;SDS011;3641;49.082;8.200;2022-12-18T06:01:53;68.53;;;26.58;;
7199;SDS011;3641;49.082;8.200;2022-12-18T06:04:19;74.65;;;27.73;;
7199;SDS011;3641;49.082;8.200;2022-12-18T06:06:46;74.45;;;27.52;;
7199;SDS011;3641;49.082;8.200;2022-12-18T06:09:12;73.60;;;27.63;;
7199;SDS011;3641;49.082;8.200;2022-12-18T06:11:39;70.45;;;27.55;;
7199;SDS011;3641;49.082;8.200;2022-12-18T06:14:05;71.82;;;27.83;;
7199;SDS011;3641;49.082;8.200;2022-12-18T06:16:32;64.95;;;26.20;;
7199;SDS011;3641;49.082;8.200;2022-12-18T06:19:01;71.45;;;27.98;;
7199;SDS011;3641;49.082;8.200;2022-12-18T06:21:29;79.03;;;28.67;;
7199;SDS011;3641;49.082;8.200;2022-12-18T06:23:56;63.13;;;27.13;;
7199;SDS011;3641;49.082;8.200;2022-12-18T06:26:23;70.22;;;27.88;;
7199;SDS011;3641;49.082;8.200;2022-12-18T06:28:50;72.75;;;26.20;;
7199;SDS011;3641;49.082;8.200;2022-12-18T06:31:16;75.53;;;28.25;;
7199;SDS011;3641;49.082;8.200;2022-12-18T06:33:43;71.45;;;26.25;;
7199;SDS011;3641;49.082;8.200;2022-12-18T06:36:11;68.32;;;26.92;;
7199;SDS011;3641;49.082;8.200;2022-12-18T06:38:40;66.53;;;26.50;;
7199;SDS011;3641;49.082;8.200;2022-12-18T06:41:08;65.13;;;26.05;;
7199;SDS011;3641;49.082;8.200;2022-12-18T06:43:35;66.15;;;24.50;;
7199;SDS011;3641;49.082;8.200;2022-12-18T06:46:01;61.75;;;26.77;;
7199;SDS011;3641;49.082;8.200;2022-12-18T06:48:29;66.93;;;25.95;;
7199;SDS011;3641;49.082;8.200;2022-12-18T06:50:56;72.88;;;25.63;;
7199;SDS011;3641;49.082;8.200;2022-12-18T06:53:24;73.38;;;26.42;;
7199;SDS011;3641;49.082;8.200;2022-12-18T06:55:51;67.28;;;25.67;;
7199;SDS011;3641;49.082;8.200;2022-12-18T06:58:17;73.05;;;25.17;;
7199;SDS011;3641;49.082;8.200;2022-12-18T07:00:44;62.55;;;25.38;;
7199;SDS011;3641;49.082;8.200;2022-12-18T07:03:10;67.90;;;24.33;;
7199;SDS011;3641;49.082;8.200;2022-12-18T07:05:39;73.82;;;26.75;;
7199;SDS011;3641;49.082;8.200;2022-12-18T07:08:06;73.22;;;26.98;;
7199;SDS011;3641;49.082;8.200;2022-12-18T07:10:34;70.40;;;28.42;;
7199;SDS011;3641;49.082;8.200;2022-12-18T07:13:07;74.28;;;26.65;;
7199;SDS011;3641;49.082;8.200;2022-12-18T07:15:33;69.22;;;26.38;;
7199;SDS011;3641;49.082;8.200;2022-12-18T07:17:59;69.07;;;27.48;;
7199;SDS011;3641;49.082;8.200;2022-12-18T07:20:26;73.20;;;27.98;;
7199;SDS011;3641;49.082;8.200;2022-12-18T07:22:52;74.15;;;27.00;;
7199;SDS011;3641;49.082;8.200;2022-12-18T07:25:19;64.97;;;26.95;;
7199;SDS011;3641;49.082;8.200;2022-12-18T07:27:47;69.88;;;28.38;;
7199;SDS011;3641;49.082;8.200;2022-12-18T07:30:13;66.85;;;28.08;;
7199;SDS011;3641;49.082;8.200;2022-12-18T07:32:40;67.30;;;27.80;;
7199;SDS011;3641;49.082;8.200;2022-12-18T07:35:06;72.68;;;28.02;;
7199;SDS011;3641;49.082;8.200;2022-12-18T07:37:33;69.45;;;28.10;;
7199;SDS011;3641;49.082;8.200;2022-12-18T07:39:59;65.43;;;27.92;;
7199;SDS011;3641;49.082;8.200;2022-12-18T07:42:25;72.32;;;29.75;;
7199;SDS011;3641;49.082;8.200;2022-12-18T07:44:59;70.70;;;27.60;;
7199;SDS011;3641;49.082;8.200;2022-12-18T07:47:26;68.25;;;27.33;;
7199;SDS011;3641;49.082;8.200;2022-12-18T07:49:52;69.75;;;28.05;;
7199;SDS011;3641;49.082;8.200;2022-12-18T07:52:19;75.68;;;29.95;;
7199;SDS011;3641;49.082;8.200;2022-12-18T07:54:46;74.25;;;29.17;;
7199;SDS011;3641;49.082;8.200;2022-12-18T07:57:14;72.28;;;29.13;;
7199;SDS011;3641;49.082;8.200;2022-12-18T07:59:42;71.32;;;29.05;;
7199;SDS011;3641;49.082;8.200;2022-12-18T08:02:10;66.18;;;27.90;;
7199;SDS011;3641;49.082;8.200;2022-12-18T08:04:36;74.63;;;29.42;;
7199;SDS011;3641;49.082;8.200;2022-12-18T08:07:03;72.75;;;29.73;;
7199;SDS011;3641;49.082;8.200;2022-12-18T08:09:29;80.20;;;31.55;;
7199;SDS011;3641;49.082;8.200;2022-12-18T08:11:55;75.82;;;31.40;;
7199;SDS011;3641;49.082;8.200;2022-12-18T08:14:22;77.50;;;32.85;;
7199;SDS011;3641;49.082;8.200;2022-12-18T08:16:48;75.50;;;30.95;;
7199;SDS011;3641;49.082;8.200;2022-12-18T08:19:16;72.10;;;30.88;;
7199;SDS011;3641;49.082;8.200;2022-12-18T08:21:43;80.07;;;32.13;;
7199;SDS011;3641;49.082;8.200;2022-12-18T08:24:09;71.05;;;31.50;;
7199;SDS011;3641;49.082;8.200;2022-12-18T08:26:36;71.97;;;30.13;;
7199;SDS011;3641;49.082;8.200;2022-12-18T08:29:02;73.65;;;30.83;;
7199;SDS011;3641;49.082;8.200;2022-12-18T08:31:29;77.82;;;31.10;;
7199;SDS011;3641;49.082;8.200;2022-12-18T08:33:56;78.43;;;30.95;;
7199;SDS011;3641;49.082;8.200;2022-12-18T08:36:24;80.88;;;30.58;;
7199;SDS011;3641;49.082;8.200;2022-12-18T08:38:51;75.43;;;29.70;;
7199;SDS011;3641;49.082;8.200;2022-12-18T08:41:18;81.00;;;31.02;;
7199;SDS011;3641;49.082;8.200;2022-12-18T08:43:45;79.40;;;31.13;;
7199;SDS011;3641;49.082;8.200;2022-12-18T08:46:32;75.57;;;30.65;;
7199;SDS011;3641;49.082;8.200;2022-12-18T08:49:00;85.78;;;32.30;;
7199;SDS011;3641;49.082;8.200;2022-12-18T08:51:28;84.20;;;32.08;;
7199;SDS011;3641;49.082;8.200;2022-12-18T08:53:54;90.53;;;33.22;;
7199;SDS011;3641;49.082;8.200;2022-12-18T08:56:21;88.00;;;31.38;;
7199;SDS011;3641;49.082;8.200;2022-12-18T08:58:50;82.03;;;31.33;;
7199;SDS011;3641;49.082;8.200;2022-12-18T09:01:18;90.00;;;33.03;;
7199;SDS011;3641;49.082;8.200;2022-12-18T09:03:44;94.15;;;32.28;;
7199;SDS011;3641;49.082;8.200;2022-12-18T09:06:14;86.32;;;32.83;;
7199;SDS011;3641;49.082;8.200;2022-12-18T09:08:43;88.60;;;31.88;;
7199;SDS011;3641;49.082;8.200;2022-12-18T09:11:13;92.00;;;33.35;;
7199;SDS011;3641;49.082;8.200;2022-12-18T09:13:41;91.90;;;33.80;;
7199;SDS011;3641;49.082;8.200;2022-12-18T09:16:08;81.80;;;31.63;;
7199;SDS011;3641;49.082;8.200;2022-12-18T09:18:34;84.93;;;31.30;;
7199;SDS011;3641;49.082;8.200;2022-12-18T09:21:07;89.88;;;34.05;;
7199;SDS011;3641;49.082;8.200;2022-12-18T09:23:34;83.35;;;31.08;;
7199;SDS011;3641;49.082;8.200;2022-12-18T09:26:02;95.65;;;33.20;;
7199;SDS011;3641;49.082;8.200;2022-12-18T09:28:29;88.85;;;32.35;;
7199;SDS011;3641;49.082;8.200;2022-12-18T09:30:56;89.50;;;34.92;;
7199;SDS011;3641;49.082;8.200;2022-12-18T09:33:22;90.70;;;34.15;;
7199;SDS011;3641;49.082;8.200;2022-12-18T09:35:49;87.45;;;33.38;;
7199;SDS011;3641;49.082;8.200;2022-12-18T09:38:16;89.80;;;32.97;;
7199;SDS011;3641;49.082;8.200;2022-12-18T09:40:44;85.45;;;32.92;;
7199;SDS011;3641;49.082;8.200;2022-12-18T09:43:16;93.15;;;35.33;;
7199;SDS011;3641;49.082;8.200;2022-12-18T09:45:46;91.20;;;33.45;;
7199;SDS011;3641;49.082;8.200;2022-12-18T09:48:19;91.60;;;34.20;;
7199;SDS011;3641;49.082;8.200;2022-12-18T09:50:49;85.47;;;33.92;;
7199;SDS011;3641;49.082;8.200;2022-12-18T09:53:17;91.97;;;33.22;;
7199;SDS011;3641;49.082;8.200;2022-12-18T09:55:47;86.20;;;32.13;;
7199;SDS011;3641;49.082;8.200;2022-12-18T09:58:19;85.35;;;33.22;;
7199;SDS011;3641;49.082;8.200;2022-12-18T10:00:51;92.35;;;32.88;;
7199;SDS011;3641;49.082;8.200;2022-12-18T10:03:17;87.35;;;32.72;;
7199;SDS011;3641;49.082;8.200;2022-12-18T10:05:46;86.78;;;32.78;;
7199;SDS011;3641;49.082;8.200;2022-12-18T10:08:21;94.32;;;33.97;;
7199;SDS011;3641;49.082;8.200;2022-12-18T10:10:51;86.45;;;34.33;;
7199;SDS011;3641;49.082;8.200;2022-12-18T10:13:22;80.55;;;31.95;;
7199;SDS011;3641;49.082;8.200;2022-12-18T10:15:59;84.80;;;31.83;;
7199;SDS011;3641;49.082;8.200;2022-12-18T10:18:38;84.90;;;31.48;;
7199;SDS011;3641;49.082;8.200;2022-12-18T10:21:21;86.07;;;31.90;;
7199;SDS011;3641;49.082;8.200;2022-12-18T10:23:57;88.88;;;32.70;;
7199;SDS011;3641;49.082;8.200;2022-12-18T10:26:35;84.47;;;31.55;;
7199;SDS011;3641;49.082;8.200;2022-12-18T10:29:06;78.57;;;32.00;;
7199;SDS011;3641;49.082;8.200;2022-12-18T10:31:37;83.05;;;31.65;;
7199;SDS011;3641;49.082;8.200;2022-12-18T10:34:03;81.13;;;32.03;;
7199;SDS011;3641;49.082;8.200;2022-12-18T10:36:30;82.00;;;30.48;;
7199;SDS011;3641;49.082;8.200;2022-12-18T10:38:58;86.10;;;31.88;;
7199;SDS011;3641;49.082;8.200;2022-12-18T10:41:40;91.25;;;31.80;;
7199;SDS011;3641;49.082;8.200;2022-12-18T10:44:12;82.05;;;32.42;;
7199;SDS011;3641;49.082;8.200;2022-12-18T10:46:43;79.50;;;30.65;;
7199;SDS011;3641;49.082;8.200;2022-12-18T10:49:18;81.60;;;31.02;;
7199;SDS011;3641;49.082;8.200;2022-12-18T10:51:47;89.70;;;32.22;;
7199;SDS011;3641;49.082;8.200;2022-12-18T10:54:14;80.60;;;30.92;;
7199;SDS011;3641;49.082;8.200;2022-12-18T10:56:42;81.20;;;32.17;;
7199;SDS011;3641;49.082;8.200;2022-12-18T10:59:12;90.20;;;32.78;;
7199;SDS011;3641;49.082;8.200;2022-12-18T11:01:47;91.65;;;34.40;;
7199;SDS011;3641;49.082;8.200;2022-12-18T11:04:16;80.72;;;31.17;;
7199;SDS011;3641;49.082;8.200;2022-12-18T11:06:52;84.97;;;33.05;;
7199;SDS011;3641;49.082;8.200;2022-12-18T11:09:21;77.32;;;31.40;;
7199;SDS011;3641;49.082;8.200;2022-12-18T11:11:49;83.63;;;33.00;;
7199;SDS011;3641;49.082;8.200;2022-12-18T11:14:20;83.28;;;33.80;;
7199;SDS011;3641;49.082;8.200;2022-12-18T11:16:49;78.35;;;30.60;;
7199;SDS011;3641;49.082;8.200;2022-12-18T11:19:23;80.70;;;31.77;;
7199;SDS011;3641;49.082;8.200;2022-12-18T11:21:56;82.07;;;31.65;;
7199;SDS011;3641;49.082;8.200;2022-12-18T11:24:24;84.75;;;32.60;;
7199;SDS011;3641;49.082;8.200;2022-12-18T11:26:55;87.38;;;33.97;;
7199;SDS011;3641;49.082;8.200;2022-12-18T11:29:28;86.85;;;34.25;;
7199;SDS011;3641;49.082;8.200;2022-12-18T11:32:20;82.70;;;32.85;;
7199;SDS011;3641;49.082;8.200;2022-12-18T11:34:52;81.10;;;31.27;;
7199;SDS011;3641;49.082;8.200;2022-12-18T11:37:24;78.28;;;30.20;;
7199;SDS011;3641;49.082;8.200;2022-12-18T11:39:52;83.15;;;31.52;;
7199;SDS011;3641;49.082;8.200;2022-12-18T11:42:24;82.05;;;30.90;;
7199;SDS011;3641;49.082;8.200;2022-12-18T11:44:57;79.18;;;30.85;;
7199;SDS011;3641;49.082;8.200;2022-12-18T11:47:28;81.47;;;29.90;;
7199;SDS011;3641;49.082;8.200;2022-12-18T11:50:00;67.68;;;27.60;;
7199;SDS011;3641;49.082;8.200;2022-12-18T11:52:29;75.10;;;28.45;;
7199;SDS011;3641;49.082;8.200;2022-12-18T11:55:04;63.25;;;27.15;;
7199;SDS011;3641;49.082;8.200;2022-12-18T11:57:39;71.57;;;27.83;;
7199;SDS011;3641;49.082;8.200;2022-12-18T12:00:13;68.25;;;25.90;;
7199;SDS011;3641;49.082;8.200;2022-12-18T12:05:40;73.40;;;28.45;;
7199;SDS011;3641;49.082;8.200;2022-12-18T12:08:18;66.20;;;27.45;;
7199;SDS011;3641;49.082;8.200;2022-12-18T12:10:56;68.70;;;26.95;;
7199;SDS011;3641;49.082;8.200;2022-12-18T12:13:33;66.53;;;27.55;;
7199;SDS011;3641;49.082;8.200;2022-12-18T12:16:12;65.50;;;27.88;;
7199;SDS011;3641;49.082;8.200;2022-12-18T12:18:46;65.25;;;26.58;;
7199;SDS011;3641;49.082;8.200;2022-12-18T12:21:23;69.45;;;28.05;;
7199;SDS011;3641;49.082;8.200;2022-12-18T12:23:56;72.07;;;29.75;;
7199;SDS011;3641;49.082;8.200;2022-12-18T12:26:32;70.88;;;28.35;;
7199;SDS011;3641;49.082;8.200;2022-12-18T12:29:09;78.45;;;29.45;;
7199;SDS011;3641;49.082;8.200;2022-12-18T12:31:55;73.95;;;30.83;;
7199;SDS011;3641;49.082;8.200;2022-12-18T12:34:38;77.97;;;30.45;;
7199;SDS011;3641;49.082;8.200;2022-12-18T12:37:19;74.72;;;29.95;;
7199;SDS011;3641;49.082;8.200;2022-12-18T12:39:51;74.43;;;30.33;;
7199;SDS011;3641;49.082;8.200;2022-12-18T12:42:23;73.78;;;30.92;;
7199;SDS011;3641;49.082;8.200;2022-12-18T12:45:15;79.97;;;31.42;;
7199;SDS011;3641;49.082;8.200;2022-12-18T12:47:47;84.43;;;32.53;;
7199;SDS011;3641;49.082;8.200;2022-12-18T12:50:17;79.68;;;32.30;;
7199;SDS011;3641;49.082;8.200;2022-12-18T12:52:46;79.45;;;31.65;;
7199;SDS011;3641;49.082;8.200;2022-12-18T12:55:17;78.55;;;31.58;;
7199;SDS011;3641;49.082;8.200;2022-12-18T12:57:48;86.65;;;33.13;;
7199;SDS011;3641;49.082;8.200;2022-12-18T13:00:22;74.75;;;31.75;;
7199;SDS011;3641;49.082;8.200;2022-12-18T13:02:52;84.70;;;33.78;;
7199;SDS011;3641;49.082;8.200;2022-12-18T13:05:30;78.15;;;32.75;;
7199;SDS011;3641;49.082;8.200;2022-12-18T13:08:06;81.05;;;32.70;;
7199;SDS011;3641;49.082;8.200;2022-12-18T13:10:35;77.88;;;31.38;;
7199;SDS011;3641;49.082;8.200;2022-12-18T13:13:03;80.47;;;32.15;;
7199;SDS011;3641;49.082;8.200;2022-12-18T13:15:33;73.50;;;31.17;;
7199;SDS011;3641;49.082;8.200;2022-12-18T13:18:06;79.15;;;31.85;;
7199;SDS011;3641;49.082;8.200;2022-12-18T13:20:42;71.63;;;28.85;;
7199;SDS011;3641;49.082;8.200;2022-12-18T13:23:27;72.38;;;30.33;;
7199;SDS011;3641;49.082;8.200;2022-12-18T13:25:55;76.72;;;30.33;;
7199;SDS011;3641;49.082;8.200;2022-12-18T13:28:23;69.35;;;28.60;;
7199;SDS011;3641;49.082;8.200;2022-12-18T13:31:10;67.68;;;27.50;;
7199;SDS011;3641;49.082;8.200;2022-12-18T13:33:42;72.82;;;28.30;;
7199;SDS011;3641;49.082;8.200;2022-12-18T13:36:13;72.53;;;28.02;;
7199;SDS011;3641;49.082;8.200;2022-12-18T13:48:26;63.88;;;26.08;;
7199;SDS011;3641;49.082;8.200;2022-12-18T13:50:56;64.32;;;28.02;;
7199;SDS011;3641;49.082;8.200;2022-12-18T13:53:26;72.82;;;29.60;;
7199;SDS011;3641;49.082;8.200;2022-12-18T13:55:55;62.88;;;27.00;;
7199;SDS011;3641;49.082;8.200;2022-12-18T13:58:22;70.05;;;28.00;;
7199;SDS011;3641;49.082;8.200;2022-12-18T14:00:49;69.95;;;29.15;;
7199;SDS011;3641;49.082;8.200;2022-12-18T14:03:18;67.65;;;28.95;;
7199;SDS011;3641;49.082;8.200;2022-12-18T14:05:46;69.20;;;28.30;;
7199;SDS011;3641;49.082;8.200;2022-12-18T14:08:21;64.63;;;27.80;;
7199;SDS011;3641;49.082;8.200;2022-12-18T14:10:49;64.57;;;27.52;;
7199;SDS011;3641;49.082;8.200;2022-12-18T14:13:19;72.68;;;30.33;;
7199;SDS011;3641;49.082;8.200;2022-12-18T14:15:50;80.43;;;30.83;;
7199;SDS011;3641;49.082;8.200;2022-12-18T14:18:20;75.28;;;30.10;;
7199;SDS011;3641;49.082;8.200;2022-12-18T14:20:50;78.82;;;31.88;;
7199;SDS011;3641;49.082;8.200;2022-12-18T14:23:32;81.55;;;31.80;;
7199;SDS011;3641;49.082;8.200;2022-12-18T14:25:59;84.55;;;31.58;;
7199;SDS011;3641;49.082;8.200;2022-12-18T14:28:27;80.75;;;32.85;;
7199;SDS011;3641;49.082;8.200;2022-12-18T14:30:53;81.90;;;33.22;;
7199;SDS011;3641;49.082;8.200;2022-12-18T14:33:21;82.13;;;31.75;;
7199;SDS011;3641;49.082;8.200;2022-12-18T14:35:53;73.72;;;31.02;;
7199;SDS011;3641;49.082;8.200;2022-12-18T14:38:29;85.25;;;33.33;;
7199;SDS011;3641;49.082;8.200;2022-12-18T14:40:58;76.40;;;33.10;;
7199;SDS011;3641;49.082;8.200;2022-12-18T14:43:26;85.75;;;34.13;;
7199;SDS011;3641;49.082;8.200;2022-12-18T14:45:55;84.68;;;35.67;;
7199;SDS011;3641;49.082;8.200;2022-12-18T14:48:25;83.93;;;34.35;;
7199;SDS011;3641;49.082;8.200;2022-12-18T14:51:01;90.45;;;34.00;;
7199;SDS011;3641;49.082;8.200;2022-12-18T14:53:35;87.63;;;35.75;;
7199;SDS011;3641;49.082;8.200;2022-12-18T14:56:10;82.97;;;34.10;;
7199;SDS011;3641;49.082;8.200;2022-12-18T14:58:43;76.00;;;31.77;;
7199;SDS011;3641;49.082;8.200;2022-12-18T15:01:17;82.47;;;33.47;;
7199;SDS011;3641;49.082;8.200;2022-12-18T15:03:44;85.25;;;35.50;;
7199;SDS011;3641;49.082;8.200;2022-12-18T15:06:17;84.97;;;32.92;;
7199;SDS011;3641;49.082;8.200;2022-12-18T15:08:52;81.63;;;32.03;;
7199;SDS011;3641;49.082;8.200;2022-12-18T15:11:27;79.65;;;33.85;;
7199;SDS011;3641;49.082;8.200;2022-12-18T15:13:57;90.20;;;35.33;;
7199;SDS011;3641;49.082;8.200;2022-12-18T15:16:25;80.68;;;31.67;;